createdAt,value
2023-03-11T13:04:46.682Z,94.80
2023-03-11T13:06:47.608Z,94.70
2023-03-11T13:12:47.349Z,94.70
2023-03-11T13:13:35.237Z,94.70
2023-03-11T13:18:34.996Z,94.70
2023-03-11T13:21:02.080Z,94.70
2023-03-11T13:23:40.993Z,94.30
2023-03-11T13:24:22.070Z,94.30
2023-03-11T13:25:38.175Z,94.40
2023-03-11T13:26:14.706Z,94.40
2023-03-11T13:26:56.776Z,94.50
2023-03-11T13:27:42.025Z,94.70
2023-03-11T13:28:20.380Z,94.90
2023-03-11T13:29:06.468Z,94.90
2023-03-11T13:29:57.172Z,95.20
2023-03-11T13:30:38.866Z,94.90
2023-03-11T13:31:10.592Z,95.00
2023-03-11T13:32:00.204Z,94.70
2023-03-11T13:32:56.435Z,94.80
2023-03-11T13:33:28.186Z,95.20
2023-03-11T13:34:32.254Z,95.00
2023-03-11T13:35:28.861Z,95.00
2023-03-11T13:36:20.467Z,95.20
2023-03-11T13:37:04.666Z,95.20
2023-03-11T13:38:03.796Z,95.10
2023-03-11T13:38:41.970Z,95.00
2023-03-11T13:39:37.957Z,95.50
2023-03-11T13:40:37.131Z,95.00
2023-03-11T13:41:22.300Z,94.80
2023-03-11T13:41:54.871Z,94.80
2023-03-11T13:42:29.522Z,95.00
2023-03-11T13:43:12.264Z,95.60
2023-03-11T13:43:50.268Z,94.90
2023-03-11T13:44:27.709Z,95.00
2023-03-11T13:45:00.428Z,94.70
2023-03-11T13:45:35.621Z,95.00
2023-03-11T13:46:25.930Z,94.60
2023-03-11T13:47:15.542Z,94.30
2023-03-11T13:47:49.676Z,94.00
2023-03-11T13:48:26.847Z,94.50
2023-03-11T13:49:14.566Z,94.10
2023-03-11T13:49:58.412Z,94.00
2023-03-11T13:50:40.181Z,94.00
2023-03-11T13:51:25.594Z,94.00
2023-03-11T13:51:59.383Z,94.20
2023-03-11T13:52:31.160Z,94.70
2023-03-11T13:53:10.620Z,94.10
2023-03-11T13:54:02.506Z,94.00
2023-03-11T13:54:40.216Z,94.70
2023-03-11T13:55:23.139Z,93.90
2023-03-11T13:55:55.076Z,93.80
2023-03-11T13:56:37.244Z,94.70
2023-03-11T13:57:24.822Z,94.10
2023-03-11T13:57:57.881Z,94.00
2023-03-11T13:58:29.752Z,93.70
2023-03-11T13:59:36.734Z,93.40
2023-03-11T14:00:17.827Z,93.60
2023-03-11T14:00:55.248Z,93.40
2023-03-11T14:01:27.330Z,93.40
2023-03-11T14:02:19.404Z,94.10
2023-03-11T14:02:55.332Z,93.30
2023-03-11T14:03:33.622Z,93.90
2023-03-11T14:04:11.269Z,93.50
2023-03-11T14:04:53.228Z,94.00
2023-03-11T14:05:32.318Z,93.40
2023-03-11T14:06:08.580Z,93.20
2023-03-11T14:06:40.392Z,93.40
2023-03-11T14:07:14.390Z,93.40
2023-03-11T14:07:46.324Z,93.20
2023-03-11T14:08:34.884Z,93.80
2023-03-11T14:09:18.212Z,93.40
2023-03-11T14:09:50.133Z,93.50
2023-03-11T14:10:28.242Z,93.10
2023-03-11T14:11:01.274Z,93.20
2023-03-11T14:11:33.070Z,93.30
2023-03-11T14:12:07.718Z,93.60
2023-03-11T14:12:39.878Z,92.80
2023-03-11T14:13:19.144Z,93.20
2023-03-11T14:13:51.250Z,93.50
2023-03-11T14:14:53.233Z,93.10
2023-03-11T14:15:27.349Z,93.00
2023-03-11T14:16:36.244Z,93.00
2023-03-11T14:17:15.686Z,92.90
2023-03-11T14:17:48.837Z,93.40
2023-03-11T14:18:29.761Z,92.80
2023-03-11T14:19:01.579Z,92.80
2023-03-11T14:19:33.435Z,93.20
2023-03-11T14:20:18.172Z,92.90
2023-03-11T14:20:50.687Z,93.00
2023-03-11T14:21:23.119Z,93.00
2023-03-11T14:21:58.221Z,93.00
2023-03-11T14:22:31.077Z,93.00
2023-03-11T14:23:02.979Z,93.40
2023-03-11T14:23:52.123Z,93.50
2023-03-11T14:24:29.685Z,93.20
2023-03-11T14:25:08.377Z,92.90
2023-03-11T14:25:41.046Z,92.80
2023-03-11T14:26:14.737Z,93.30
2023-03-11T14:26:49.875Z,92.80
2023-03-11T14:27:21.657Z,93.40
2023-03-11T14:28:00.876Z,92.70
2023-03-11T14:28:37.120Z,93.00
2023-03-11T14:29:15.104Z,92.60
2023-03-11T14:29:48.196Z,92.80
2023-03-11T14:30:23.674Z,93.00
2023-03-11T14:30:58.178Z,92.60
2023-03-11T14:31:43.769Z,92.60
2023-03-11T14:32:35.996Z,92.50
2023-03-11T14:33:22.356Z,92.70
2023-03-11T14:34:12.244Z,92.70
2023-03-11T14:34:45.917Z,92.40
2023-03-11T14:35:21.519Z,92.70
2023-03-11T14:36:02.830Z,92.70
2023-03-11T14:36:50.925Z,93.00
2023-03-11T14:37:35.270Z,92.60
2023-03-11T14:38:24.995Z,93.00
2023-03-11T14:38:56.758Z,92.20
2023-03-11T14:39:39.922Z,92.40
2023-03-11T14:40:26.221Z,92.60
2023-03-11T14:41:04.374Z,92.30
2023-03-11T14:41:36.209Z,92.80
2023-03-11T14:42:23.758Z,92.50
2023-03-11T14:43:01.562Z,92.40
2023-03-11T14:43:38.223Z,92.30
2023-03-11T14:44:11.273Z,92.80
2023-03-11T14:44:47.518Z,92.30
2023-03-11T14:45:21.563Z,92.10
2023-03-11T14:45:55.606Z,91.90
2023-03-11T14:46:30.187Z,92.60
2023-03-11T14:47:32.659Z,92.30
2023-03-11T14:48:15.359Z,92.40
2023-03-11T14:48:49.875Z,92.40
2023-03-11T14:49:23.652Z,92.50
2023-03-11T14:49:56.201Z,92.10
2023-03-11T14:50:31.862Z,92.70
2023-03-11T14:51:11.279Z,91.90
2023-03-11T14:51:43.589Z,91.80
2023-03-11T14:52:27.391Z,91.80
2023-03-11T14:53:24.310Z,91.80
2023-03-11T14:54:24.346Z,92.20
2023-03-11T14:54:57.324Z,92.10
2023-03-11T14:56:18.945Z,91.60
2023-03-11T14:57:01.710Z,91.60
2023-03-11T14:57:40.318Z,91.50
2023-03-11T14:58:26.689Z,91.40
2023-03-11T14:59:12.526Z,91.70
2023-03-11T14:59:49.506Z,91.80
2023-03-11T15:00:27.257Z,91.60
2023-03-11T15:01:16.273Z,91.60
2023-03-11T15:01:49.225Z,91.60
2023-03-11T15:02:32.481Z,91.70
2023-03-11T15:03:19.196Z,91.80
2023-03-11T15:04:00.782Z,91.70
2023-03-11T15:04:37.830Z,91.90
2023-03-11T15:05:19.870Z,91.90
2023-03-11T15:06:04.052Z,91.60
2023-03-11T15:06:40.187Z,91.90
2023-03-11T15:07:13.020Z,91.70
2023-03-11T15:07:47.103Z,91.90
2023-03-11T15:08:21.194Z,91.50
2023-03-11T15:09:10.077Z,91.60
2023-03-11T15:09:42.792Z,91.60
2023-03-11T15:10:14.864Z,91.40
2023-03-11T15:11:08.402Z,91.50
2023-03-11T15:11:50.148Z,91.30
2023-03-11T15:12:39.821Z,90.90
2023-03-11T15:13:16.191Z,91.00
2023-03-11T15:13:51.152Z,91.30
2023-03-11T15:14:26.082Z,91.20
2023-03-11T15:14:58.583Z,90.90
2023-03-11T15:15:30.351Z,91.00
2023-03-11T15:16:05.455Z,90.90
2023-03-11T15:16:38.084Z,91.40
2023-03-11T15:17:36.094Z,91.20
2023-03-11T15:18:26.510Z,91.00
2023-03-11T15:19:21.427Z,91.70
2023-03-11T15:19:53.164Z,91.50
2023-03-11T15:20:26.401Z,91.90
2023-03-11T15:21:06.404Z,91.20
2023-03-11T15:21:46.901Z,91.40
2023-03-11T15:22:29.264Z,91.20
2023-03-11T15:23:04.017Z,91.20
2023-03-11T15:23:36.696Z,91.50
2023-03-11T15:24:21.173Z,91.60
2023-03-11T15:24:57.049Z,91.60
2023-03-11T15:25:33.291Z,91.30
2023-03-11T15:26:06.765Z,91.30
2023-03-11T15:26:42.321Z,91.20
2023-03-11T15:27:34.115Z,91.00
2023-03-11T15:28:24.168Z,90.90
2023-03-11T15:29:02.384Z,90.80
2023-03-11T15:29:36.016Z,89.10
2023-03-11T15:30:21.884Z,90.20
2023-03-11T15:31:34.481Z,90.30
2023-03-11T15:32:30.278Z,90.30
2023-03-11T15:33:02.046Z,90.30
2023-03-11T15:33:34.333Z,90.30
2023-03-11T15:34:16.906Z,91.10
2023-03-11T15:35:00.148Z,90.50
2023-03-11T15:35:44.933Z,90.40
2023-03-11T15:36:30.884Z,90.40
2023-03-11T15:37:20.889Z,90.60
2023-03-11T15:38:25.768Z,90.50
2023-03-11T15:39:30.977Z,90.90
2023-03-11T15:40:19.721Z,90.70
2023-03-11T15:41:01.018Z,90.90
2023-03-11T15:41:32.801Z,90.40
2023-03-11T15:42:07.708Z,90.80
2023-03-11T15:42:39.876Z,91.40
2023-03-11T15:43:14.638Z,90.70
2023-03-11T15:43:49.118Z,91.40
2023-03-11T15:45:00.268Z,91.30
2023-03-11T15:45:32.127Z,91.20
2023-03-11T15:46:04.078Z,90.80
2023-03-11T15:46:36.143Z,91.00
2023-03-11T15:47:16.866Z,90.90
2023-03-11T15:47:50.704Z,91.00
2023-03-11T15:48:23.713Z,91.10
2023-03-11T15:48:55.617Z,90.90
2023-03-11T15:49:28.790Z,91.20
2023-03-11T15:50:15.194Z,91.30
2023-03-11T15:50:55.336Z,90.60
2023-03-11T15:51:27.287Z,90.50
2023-03-11T15:52:00.540Z,90.50
2023-03-11T15:52:32.337Z,90.70
2023-03-11T15:53:04.943Z,90.60
2023-03-11T15:53:36.756Z,90.00
2023-03-11T15:54:08.527Z,90.70
2023-03-11T15:54:40.819Z,92.40
2023-03-11T15:55:12.971Z,91.80
2023-03-11T15:55:45.609Z,92.00
2023-03-11T15:56:25.583Z,91.40
2023-03-11T15:57:01.056Z,91.10
2023-03-11T15:57:33.095Z,91.70
2023-03-11T15:58:08.151Z,92.10
2023-03-11T15:58:39.990Z,92.40
2023-03-11T15:59:16.506Z,91.90
2023-03-11T15:59:48.991Z,92.00
2023-03-11T16:00:23.306Z,92.10
2023-03-11T16:00:57.239Z,92.00
2023-03-11T16:01:30.264Z,92.20
2023-03-11T16:02:02.087Z,92.30
2023-03-11T16:02:33.878Z,91.90
2023-03-11T16:03:05.833Z,91.70
2023-03-11T16:04:19.987Z,91.10
2023-03-11T16:04:52.645Z,91.30
2023-03-11T16:05:25.964Z,91.40
2023-03-11T16:05:57.718Z,91.70
2023-03-11T16:06:29.442Z,92.00
2023-03-11T16:07:07.773Z,92.20
2023-03-11T16:07:40.404Z,92.20
2023-03-11T16:08:12.291Z,92.10
2023-03-11T16:08:44.936Z,92.00
2023-03-11T16:09:17.202Z,91.40
2023-03-11T16:09:48.984Z,91.50
2023-03-11T16:10:24.200Z,92.00
2023-03-11T16:10:56.044Z,92.10
2023-03-11T16:11:32.508Z,91.60
2023-03-11T16:12:23.130Z,92.00
2023-03-11T16:12:55.443Z,91.90
2023-03-11T16:13:27.255Z,92.00
2023-03-11T16:13:59.772Z,91.90
2023-03-11T16:14:31.501Z,91.80
2023-03-11T16:15:04.177Z,92.50
2023-03-11T16:15:38.080Z,92.10
2023-03-11T16:16:17.426Z,92.10
2023-03-11T16:16:49.248Z,92.10
2023-03-11T16:17:23.350Z,91.90
2023-03-11T16:17:57.351Z,92.60
2023-03-11T16:18:29.129Z,92.20
2023-03-11T16:19:00.998Z,92.20
2023-03-11T16:19:32.792Z,92.30
2023-03-11T16:20:05.237Z,92.30
2023-03-11T16:20:44.025Z,92.10
2023-03-11T16:21:21.011Z,92.20
2023-03-11T16:21:52.839Z,92.10
2023-03-11T16:22:42.768Z,92.10
2023-03-11T16:23:24.316Z,91.80
2023-03-11T16:23:56.114Z,92.10
2023-03-11T16:24:27.869Z,92.30
2023-03-11T16:25:00.532Z,92.70
2023-03-11T16:25:38.757Z,92.30
2023-03-11T16:26:12.273Z,92.20
2023-03-11T16:26:44.028Z,92.10
2023-03-11T16:27:18.006Z,91.90
2023-03-11T16:27:52.069Z,92.70
2023-03-11T16:28:23.905Z,92.20
2023-03-11T16:28:56.448Z,92.30
2023-03-11T16:29:28.270Z,92.20
2023-03-11T16:30:00.060Z,92.50
2023-03-11T16:30:34.028Z,92.10
2023-03-11T16:31:08.564Z,92.20
2023-03-11T16:31:40.426Z,92.60
2023-03-11T16:32:12.919Z,92.50
2023-03-11T16:32:44.955Z,92.30
2023-03-11T16:33:16.980Z,92.70
2023-03-11T16:33:48.735Z,92.60
2023-03-11T16:34:21.516Z,91.60
2023-03-11T16:34:53.268Z,92.80
2023-03-11T16:35:25.469Z,92.60
2023-03-11T16:35:57.436Z,92.40
2023-03-11T16:36:29.234Z,92.60
2023-03-11T16:37:00.979Z,92.80
2023-03-11T16:37:32.770Z,92.60
2023-03-11T16:38:04.549Z,92.60
2023-03-11T16:38:49.708Z,92.60
2023-03-11T16:39:21.555Z,92.70
2023-03-11T16:39:53.670Z,92.60
2023-03-11T16:40:28.240Z,93.00
2023-03-11T16:41:01.967Z,92.60
2023-03-11T16:41:44.621Z,92.40
2023-03-11T16:42:23.612Z,92.50
2023-03-11T16:43:02.337Z,92.40
2023-03-11T16:43:34.177Z,92.60
2023-03-11T16:44:07.927Z,92.70
2023-03-11T16:44:41.164Z,93.20
2023-03-11T16:45:15.535Z,92.50
2023-03-11T16:45:47.304Z,92.90
2023-03-11T16:46:19.376Z,92.90
2023-03-11T16:46:51.280Z,92.80
2023-03-11T16:47:23.074Z,92.80
2023-03-11T16:47:54.831Z,92.80
2023-03-11T16:48:26.658Z,92.80
2023-03-11T16:48:58.458Z,93.50
2023-03-11T16:49:30.351Z,92.80
2023-03-11T16:50:02.204Z,92.80
2023-03-11T16:50:37.324Z,92.80
2023-03-11T16:51:09.597Z,92.70
2023-03-11T16:51:41.404Z,93.10
2023-03-11T16:52:13.184Z,92.90
2023-03-11T16:52:45.009Z,92.80
2023-03-11T16:53:17.586Z,93.30
2023-03-11T16:53:49.551Z,92.80
2023-03-11T16:54:21.321Z,92.90
2023-03-11T16:54:53.185Z,92.90
2023-03-11T16:55:26.844Z,92.90
2023-03-11T16:55:59.674Z,92.80
2023-03-11T16:56:31.438Z,93.30
2023-03-11T16:57:03.285Z,92.80
2023-03-11T16:57:35.136Z,92.90
2023-03-11T16:58:06.919Z,93.40
2023-03-11T16:58:40.528Z,93.50
2023-03-11T16:59:12.363Z,92.90
2023-03-11T16:59:44.121Z,92.90
2023-03-11T17:00:18.000Z,92.50
2023-03-11T17:00:49.819Z,92.70
2023-03-11T17:01:22.165Z,92.40
2023-03-11T17:01:54.160Z,92.70
2023-03-11T17:02:26.388Z,92.70
2023-03-11T17:02:58.188Z,92.90
2023-03-11T17:03:40.949Z,92.80
2023-03-11T17:04:14.232Z,92.70
2023-03-11T17:04:46.014Z,92.90
2023-03-11T17:05:17.867Z,93.40
2023-03-11T17:05:50.218Z,93.10
2023-03-11T17:06:22.183Z,93.20
2023-03-11T17:06:54.987Z,92.80
2023-03-11T17:07:27.413Z,92.90
2023-03-11T17:08:04.298Z,92.70
2023-03-11T17:08:36.115Z,92.70
2023-03-11T17:09:07.847Z,93.10
2023-03-11T17:09:39.648Z,92.70
2023-03-11T17:10:12.375Z,93.10
2023-03-11T17:10:45.366Z,92.80
2023-03-11T17:11:23.225Z,92.60
2023-03-11T17:11:55.004Z,92.80
2023-03-11T17:12:28.004Z,93.10
2023-03-11T17:12:59.768Z,92.50
2023-03-11T17:13:31.562Z,92.90
2023-03-11T17:14:15.993Z,92.80
2023-03-11T17:14:48.499Z,91.90
2023-03-11T17:15:20.504Z,93.20
2023-03-11T17:15:59.213Z,93.10
2023-03-11T17:16:34.932Z,92.90
2023-03-11T17:17:07.710Z,93.40
2023-03-11T17:17:39.531Z,92.70
2023-03-11T17:18:12.568Z,93.20
2023-03-11T17:18:44.371Z,92.70
2023-03-11T17:19:16.941Z,93.70
2023-03-11T17:19:51.073Z,92.70
2023-03-11T17:20:22.993Z,92.60
2023-03-11T17:20:55.180Z,92.70
2023-03-11T17:21:26.948Z,93.00
2023-03-11T17:21:58.776Z,93.00
2023-03-11T17:22:32.425Z,92.40
2023-03-11T17:23:04.191Z,92.80
2023-03-11T17:23:36.804Z,92.80
2023-03-11T17:24:10.672Z,92.40
2023-03-11T17:24:42.863Z,93.10
2023-03-11T17:25:14.648Z,93.20
2023-03-11T17:25:46.564Z,92.80
2023-03-11T17:26:18.431Z,92.80
2023-03-11T17:26:50.260Z,92.90
2023-03-11T17:27:22.042Z,93.30
2023-03-11T17:27:53.823Z,93.00
2023-03-11T17:28:25.599Z,92.60
2023-03-11T17:28:57.578Z,92.90
2023-03-11T17:29:29.371Z,92.80
2023-03-11T17:30:02.656Z,92.80
2023-03-11T17:30:37.296Z,92.80
2023-03-11T17:31:16.845Z,92.80
2023-03-11T17:31:48.852Z,92.80
2023-03-11T17:32:21.503Z,92.90
2023-03-11T17:32:53.416Z,92.80
2023-03-11T17:33:25.220Z,92.80
2023-03-11T17:34:00.763Z,92.60
2023-03-11T17:34:32.576Z,92.60
2023-03-11T17:35:04.835Z,92.50
2023-03-11T17:35:36.820Z,92.70
2023-03-11T17:36:11.527Z,92.70
2023-03-11T17:36:43.306Z,92.60
2023-03-11T17:37:15.114Z,92.70
2023-03-11T17:37:46.879Z,92.80
2023-03-11T17:38:18.643Z,92.80
2023-03-11T17:38:53.332Z,92.70
2023-03-11T17:39:25.091Z,92.70
2023-03-11T17:39:56.903Z,92.90
2023-03-11T17:40:30.741Z,92.90
2023-03-11T17:41:08.012Z,92.90
2023-03-11T17:41:39.808Z,92.80
2023-03-11T17:42:11.718Z,92.00
2023-03-11T17:42:43.562Z,93.40
2023-03-11T17:43:15.314Z,93.10
2023-03-11T17:43:50.259Z,93.30
2023-03-11T17:44:23.072Z,92.80
2023-03-11T17:44:58.075Z,92.80
2023-03-11T17:45:29.990Z,92.80
2023-03-11T17:46:02.245Z,92.90
2023-03-11T17:46:36.262Z,92.90
2023-03-11T17:47:08.146Z,92.70
2023-03-11T17:47:40.048Z,93.00
2023-03-11T17:48:11.813Z,92.80
2023-03-11T17:48:46.168Z,93.30
2023-03-11T17:49:17.986Z,92.90
2023-03-11T17:50:21.962Z,92.50
2023-03-11T17:50:54.324Z,93.50
2023-03-11T17:51:26.382Z,93.10
2023-03-11T17:51:58.334Z,92.50
2023-03-11T17:52:30.185Z,92.70
2023-03-11T17:53:03.672Z,93.10
2023-03-11T17:53:37.035Z,92.80
2023-03-11T17:54:08.867Z,92.90
2023-03-11T17:54:40.712Z,92.80
2023-03-11T17:55:12.543Z,92.90
2023-03-11T17:55:44.352Z,92.70
2023-03-11T17:56:20.345Z,92.90
2023-03-11T17:56:53.986Z,92.80
2023-03-11T17:57:25.782Z,93.20
2023-03-11T17:57:57.605Z,93.80
2023-03-11T17:58:29.384Z,93.20
2023-03-11T17:59:01.237Z,93.30
2023-03-11T17:59:33.132Z,93.20
2023-03-11T18:00:07.614Z,93.20
2023-03-11T18:00:39.566Z,93.20
2023-03-11T18:01:14.648Z,93.20
2023-03-11T18:01:46.523Z,93.20
2023-03-11T18:02:18.922Z,93.10
2023-03-11T18:02:53.780Z,93.10
2023-03-11T18:03:25.738Z,93.00
2023-03-11T18:03:58.167Z,93.20
2023-03-11T18:04:30.074Z,92.80
2023-03-11T18:05:01.898Z,92.80
2023-03-11T18:05:33.680Z,93.20
2023-03-11T18:06:06.634Z,93.80
2023-03-11T18:06:38.742Z,93.70
2023-03-11T18:07:10.515Z,93.80
2023-03-11T18:07:45.260Z,94.30
2023-03-11T18:08:17.083Z,94.00
2023-03-11T18:08:49.564Z,94.00
2023-03-11T18:09:21.415Z,94.10
2023-03-11T18:09:53.724Z,94.50
2023-03-11T18:10:25.498Z,94.40
2023-03-11T18:11:03.193Z,94.30
2023-03-11T18:11:35.164Z,93.90
2023-03-11T18:12:06.974Z,94.40
2023-03-11T18:12:39.282Z,93.80
2023-03-11T18:13:11.027Z,94.00
2023-03-11T18:13:42.911Z,94.10
2023-03-11T18:14:14.715Z,94.00
2023-03-11T18:14:46.480Z,94.00
2023-03-11T18:15:19.319Z,93.90
2023-03-11T18:16:03.426Z,93.80
2023-03-11T18:16:35.283Z,94.10
2023-03-11T18:17:07.096Z,93.80
2023-03-11T18:17:38.841Z,94.10
2023-03-11T18:18:11.085Z,94.40
2023-03-11T18:18:44.157Z,94.70
2023-03-11T18:19:16.382Z,94.10
2023-03-11T18:19:48.348Z,94.10
2023-03-11T18:20:20.337Z,94.30
2023-03-11T18:20:54.431Z,93.90
2023-03-11T18:21:29.036Z,93.30
2023-03-11T18:22:00.901Z,94.30
2023-03-11T18:22:35.278Z,93.90
2023-03-11T18:23:07.323Z,93.90
2023-03-11T18:23:39.417Z,94.60
2023-03-11T18:24:11.505Z,94.50
2023-03-11T18:24:43.375Z,94.50
2023-03-11T18:25:15.212Z,94.20
2023-03-11T18:25:51.818Z,94.00
2023-03-11T18:26:25.361Z,94.30
2023-03-11T18:26:57.183Z,94.80
2023-03-11T18:27:28.928Z,94.20
2023-03-11T18:28:00.804Z,94.60
2023-03-11T18:28:33.283Z,94.30
2023-03-11T18:29:05.152Z,94.10
2023-03-11T18:29:36.953Z,94.20
2023-03-11T18:30:11.263Z,94.20
2023-03-11T18:30:43.065Z,94.10
2023-03-11T18:31:17.931Z,94.60
2023-03-11T18:31:49.841Z,93.70
2023-03-11T18:32:21.916Z,94.20
2023-03-11T18:32:53.692Z,94.10
2023-03-11T18:33:25.653Z,94.20
2023-03-11T18:34:02.830Z,94.20
2023-03-11T18:34:34.768Z,94.10
2023-03-11T18:35:07.103Z,94.20
2023-03-11T18:35:38.898Z,94.20
2023-03-11T18:36:18.789Z,94.20
2023-03-11T18:36:50.623Z,94.20
2023-03-11T18:37:22.444Z,94.20
2023-03-11T18:37:54.189Z,94.30
2023-03-11T18:38:25.960Z,94.20
2023-03-11T18:38:59.746Z,94.10
2023-03-11T18:39:31.522Z,94.20
2023-03-11T18:40:03.656Z,94.20
2023-03-11T18:40:35.442Z,94.10
2023-03-11T18:41:07.199Z,94.40
2023-03-11T18:41:39.078Z,94.10
2023-03-11T18:42:10.920Z,94.30
2023-03-11T18:42:42.774Z,94.10
2023-03-11T18:43:14.733Z,94.10
2023-03-11T18:43:46.755Z,94.10
2023-03-11T18:44:18.575Z,93.70
2023-03-11T18:44:50.378Z,93.80
2023-03-11T18:45:22.150Z,94.00
2023-03-11T18:45:53.920Z,94.00
2023-03-11T18:46:28.484Z,94.30
2023-03-11T18:47:00.511Z,93.90
2023-03-11T18:47:35.549Z,93.90
2023-03-11T18:48:07.481Z,94.00
2023-03-11T18:48:39.563Z,94.90
2023-03-11T18:49:13.220Z,94.20
2023-03-11T18:49:45.876Z,93.90
2023-03-11T18:50:17.775Z,93.90
2023-03-11T18:50:53.836Z,94.00
2023-03-11T18:51:28.153Z,94.00
2023-03-11T18:51:59.979Z,94.40
2023-03-11T18:52:31.764Z,93.90
2023-03-11T18:53:03.761Z,94.60
2023-03-11T18:53:36.112Z,93.80
2023-03-11T18:54:08.163Z,93.90
2023-03-11T18:54:39.958Z,93.90
2023-03-11T18:55:11.860Z,94.00
2023-03-11T18:55:43.645Z,93.60
2023-03-11T18:56:17.382Z,93.70
2023-03-11T18:56:50.175Z,93.80
2023-03-11T18:57:21.933Z,93.80
2023-03-11T18:57:53.696Z,94.20
2023-03-11T18:58:25.456Z,93.80
2023-03-11T18:59:00.805Z,94.30
2023-03-11T18:59:32.669Z,94.20
2023-03-11T19:00:04.750Z,93.80
2023-03-11T19:00:36.732Z,93.80
2023-03-11T19:01:14.082Z,93.80
2023-03-11T19:01:45.988Z,94.10
2023-03-11T19:02:18.124Z,93.80
2023-03-11T19:02:54.060Z,93.80
2023-03-11T19:03:25.901Z,93.80
2023-03-11T19:03:59.992Z,94.20
2023-03-11T19:04:32.982Z,93.70
2023-03-11T19:05:05.596Z,93.80
2023-03-11T19:05:38.118Z,93.80
2023-03-11T19:06:12.239Z,93.70
2023-03-11T19:06:44.025Z,93.50
2023-03-11T19:07:15.871Z,93.70
2023-03-11T19:07:47.653Z,94.10
2023-03-11T19:08:19.638Z,93.70
2023-03-11T19:08:51.936Z,93.70
2023-03-11T19:09:24.023Z,93.80
2023-03-11T19:09:55.834Z,93.80
2023-03-11T19:10:27.605Z,94.00
2023-03-11T19:10:59.623Z,93.80
2023-03-11T19:11:31.515Z,94.40
2023-03-11T19:12:03.530Z,94.00
2023-03-11T19:12:35.671Z,93.80
2023-03-11T19:13:07.620Z,93.50
2023-03-11T19:13:47.131Z,94.20
2023-03-11T19:14:19.472Z,93.80
2023-03-11T19:14:51.224Z,93.50
2023-03-11T19:15:23.140Z,93.80
2023-03-11T19:15:54.997Z,93.70
2023-03-11T19:16:27.021Z,94.00
2023-03-11T19:16:58.913Z,93.80
2023-03-11T19:17:30.725Z,93.70
2023-03-11T19:18:07.011Z,94.10
2023-03-11T19:18:39.802Z,94.10
2023-03-11T19:19:12.145Z,94.20
2023-03-11T19:19:44.213Z,93.50
2023-03-11T19:20:16.191Z,93.70
2023-03-11T19:20:56.832Z,93.70
2023-03-11T19:21:28.674Z,93.60
2023-03-11T19:22:00.490Z,93.70
2023-03-11T19:22:32.260Z,93.70
2023-03-11T19:23:05.567Z,93.70
2023-03-11T19:23:37.307Z,93.60
2023-03-11T19:24:09.168Z,93.90
2023-03-11T19:24:41.026Z,93.40
2023-03-11T19:25:12.747Z,93.70
2023-03-11T19:26:00.583Z,93.70
2023-03-11T19:26:44.713Z,94.10
2023-03-11T19:27:17.376Z,93.70
2023-03-11T19:27:49.153Z,93.70
2023-03-11T19:28:21.997Z,93.90
2023-03-11T19:28:54.066Z,93.60
2023-03-11T19:29:26.872Z,94.00
2023-03-11T19:29:58.862Z,93.60
2023-03-11T19:30:30.692Z,94.30
2023-03-11T19:31:03.716Z,94.20
2023-03-11T19:31:35.732Z,93.50
2023-03-11T19:32:07.554Z,93.30
2023-03-11T19:32:39.433Z,93.30
2023-03-11T19:33:14.352Z,93.70
2023-03-11T19:33:47.147Z,93.80
2023-03-11T19:34:21.389Z,93.40
2023-03-11T19:34:53.244Z,93.30
2023-03-11T19:35:25.074Z,93.60
2023-03-11T19:35:59.579Z,93.70
2023-03-11T19:36:31.638Z,93.70
2023-03-11T19:37:03.381Z,93.60
2023-03-11T19:37:35.156Z,93.80
2023-03-11T19:38:06.919Z,93.50
2023-03-11T19:38:39.486Z,93.60
2023-03-11T19:39:11.330Z,93.50
2023-03-11T19:39:43.473Z,93.70
2023-03-11T19:40:15.718Z,93.40
2023-03-11T19:40:59.402Z,93.50
2023-03-11T19:41:31.296Z,92.50
2023-03-11T19:42:03.648Z,93.50
2023-03-11T19:42:35.810Z,93.50
2023-03-11T19:43:07.592Z,94.20
2023-03-11T19:43:39.443Z,93.70
2023-03-11T19:44:11.227Z,93.50
2023-03-11T19:44:42.976Z,93.50
2023-03-11T19:45:14.872Z,93.40
2023-03-11T19:45:50.523Z,93.50
2023-03-11T19:46:22.763Z,93.20
2023-03-11T19:46:54.545Z,94.00
2023-03-11T19:47:26.415Z,93.40
2023-03-11T19:47:58.466Z,93.20
2023-03-11T19:48:30.501Z,93.20
2023-03-11T19:49:03.348Z,93.40
2023-03-11T19:49:35.116Z,93.50
2023-03-11T19:50:07.548Z,93.40
2023-03-11T19:50:39.929Z,93.30
2023-03-11T19:51:12.908Z,93.40
2023-03-11T19:51:50.154Z,93.20
2023-03-11T19:52:23.253Z,93.70
2023-03-11T19:52:55.024Z,93.40
2023-03-11T19:53:27.288Z,93.30
2023-03-11T19:53:59.102Z,93.90
2023-03-11T19:54:30.880Z,93.20
2023-03-11T19:55:03.463Z,93.50
2023-03-11T19:55:35.215Z,93.30
2023-03-11T19:56:07.553Z,93.50
2023-03-11T19:56:39.864Z,93.30
2023-03-11T19:57:11.629Z,93.30
2023-03-11T19:57:43.456Z,93.40
2023-03-11T19:58:15.515Z,93.70
2023-03-11T19:58:47.322Z,93.30
2023-03-11T19:59:19.238Z,93.30
2023-03-11T19:59:51.079Z,93.40
2023-03-11T20:00:24.214Z,93.10
2023-03-11T20:00:56.127Z,93.30
2023-03-11T20:01:30.438Z,93.30
2023-03-11T20:02:02.904Z,93.20
2023-03-11T20:02:34.769Z,93.30
2023-03-11T20:03:07.616Z,93.00
2023-03-11T20:03:39.974Z,93.20
2023-03-11T20:04:14.949Z,92.40
2023-03-11T20:04:46.878Z,93.20
2023-03-11T20:05:18.695Z,93.20
2023-03-11T20:05:52.556Z,93.00
2023-03-11T20:06:24.528Z,94.10
2023-03-11T20:06:56.463Z,93.80
2023-03-11T20:07:28.284Z,93.10
2023-03-11T20:08:00.166Z,93.30
2023-03-11T20:08:36.593Z,93.40
2023-03-11T20:09:08.893Z,93.30
2023-03-11T20:09:40.680Z,93.70
2023-03-11T20:10:12.439Z,93.40
2023-03-11T20:10:47.136Z,93.30
2023-03-11T20:11:18.933Z,93.20
2023-03-11T20:11:50.870Z,93.40
2023-03-11T20:13:02.159Z,93.00
2023-03-11T20:13:35.862Z,93.00
2023-03-11T20:14:09.775Z,93.20
2023-03-11T20:14:42.527Z,93.50
2023-03-11T20:15:14.412Z,93.30
2023-03-11T20:15:46.616Z,93.30
2023-03-11T20:16:19.784Z,93.90
2023-03-11T20:16:52.446Z,93.10
2023-03-11T20:17:24.303Z,93.60
2023-03-11T20:17:56.066Z,93.00
2023-03-11T20:18:27.829Z,93.30
2023-03-11T20:18:59.735Z,93.40
2023-03-11T20:19:31.547Z,93.60
2023-03-11T20:20:03.671Z,93.60
2023-03-11T20:20:38.703Z,93.30
2023-03-11T20:21:12.822Z,93.60
2023-03-11T20:21:45.948Z,93.20
2023-03-11T20:22:18.109Z,93.70
2023-03-11T20:22:50.062Z,93.20
2023-03-11T20:23:21.898Z,93.30
2023-03-11T20:23:55.007Z,93.30
2023-03-11T20:24:26.935Z,93.50
2023-03-11T20:24:58.806Z,93.50
2023-03-11T20:25:34.810Z,93.30
2023-03-11T20:26:15.091Z,93.20
2023-03-11T20:26:48.335Z,93.20
2023-03-11T20:27:21.174Z,93.20
2023-03-11T20:27:53.629Z,93.20
2023-03-11T20:28:25.378Z,93.20
2023-03-11T20:28:57.774Z,93.20
2023-03-11T20:29:29.700Z,93.20
2023-03-11T20:30:01.566Z,93.70
2023-03-11T20:30:33.584Z,93.40
2023-03-11T20:31:18.719Z,93.60
2023-03-11T20:31:51.741Z,93.30
2023-03-11T20:32:23.540Z,93.20
2023-03-11T20:32:55.633Z,93.20
2023-03-11T20:33:27.458Z,93.70
2023-03-11T20:33:59.973Z,93.20
2023-03-11T20:34:31.891Z,93.20
2023-03-11T20:35:04.086Z,93.00
2023-03-11T20:35:36.008Z,93.20
2023-03-11T20:36:11.848Z,93.30
2023-03-11T20:36:43.859Z,93.20
2023-03-11T20:37:16.148Z,93.50
2023-03-11T20:37:47.998Z,93.20
2023-03-11T20:38:19.796Z,93.60
2023-03-11T20:38:53.717Z,93.20
2023-03-11T20:39:25.523Z,93.80
2023-03-11T20:39:57.573Z,93.40
2023-03-11T20:40:30.246Z,93.80
2023-03-11T20:41:05.860Z,93.20
2023-03-11T20:41:40.263Z,93.70
2023-03-11T20:42:12.141Z,93.00
2023-03-11T20:42:46.862Z,93.20
2023-03-11T20:43:18.902Z,93.20
2023-03-11T20:43:55.584Z,92.90
2023-03-11T20:44:27.442Z,93.20
2023-03-11T20:44:59.318Z,93.20
2023-03-11T20:45:31.133Z,93.20
2023-03-11T20:46:03.878Z,93.40
2023-03-11T20:46:35.887Z,93.30
2023-03-11T20:47:07.942Z,93.90
2023-03-11T20:47:40.004Z,93.20
2023-03-11T20:48:11.816Z,93.30
2023-03-11T20:48:43.549Z,93.30
2023-03-11T20:49:15.639Z,94.10
2023-03-11T20:49:47.483Z,93.30
2023-03-11T20:50:20.456Z,93.30
2023-03-11T20:51:25.112Z,93.00
2023-03-11T20:51:56.902Z,93.70
2023-03-11T20:52:34.221Z,93.80
2023-03-11T20:53:06.437Z,93.40
2023-03-11T20:53:38.915Z,93.00
2023-03-11T20:54:11.923Z,93.20
2023-03-11T20:54:43.930Z,93.50
2023-03-11T20:55:15.762Z,93.30
2023-03-11T20:55:47.989Z,93.70
2023-03-11T20:56:24.945Z,93.60